createdAt,value
2022-10-01T00:00:28.726Z,13.85
2022-10-01T00:06:01.863Z,13.87
2022-10-01T00:11:12.748Z,13.87
2022-10-01T00:16:19.728Z,13.87
2022-10-01T00:21:27.347Z,13.85
2022-10-01T00:26:34.580Z,13.84
2022-10-01T00:31:40.833Z,13.86
2022-10-01T00:36:47.687Z,13.84
2022-10-01T00:41:53.977Z,13.85
2022-10-01T00:47:03.217Z,13.83
2022-10-01T00:52:11.171Z,13.83
2022-10-01T00:57:18.289Z,13.84
2022-10-01T01:02:24.566Z,13.83
2022-10-01T01:07:31.028Z,13.82
2022-10-01T01:12:44.769Z,13.83
2022-10-01T01:17:55.201Z,13.85
2022-10-01T01:23:07.412Z,13.85
2022-10-01T01:28:19.574Z,13.84
2022-10-01T01:33:28.208Z,13.84
2022-10-01T01:38:38.189Z,13.82
2022-10-01T01:43:46.448Z,13.83
2022-10-01T01:48:53.687Z,13.82
2022-10-01T01:54:00.381Z,13.82
2022-10-01T01:59:07.460Z,13.82
2022-10-01T02:04:17.010Z,13.83
2022-10-01T02:09:29.331Z,13.83
2022-10-01T02:14:38.408Z,13.82
2022-10-01T02:19:47.519Z,13.82
2022-10-01T02:24:57.307Z,13.81
2022-10-01T02:30:05.519Z,13.81
2022-10-01T02:35:13.718Z,13.82
2022-10-01T02:40:21.107Z,13.82
2022-10-01T02:45:28.055Z,13.83
2022-10-01T02:50:36.572Z,13.79
2022-10-01T02:55:43.788Z,13.82
2022-10-01T03:00:50.131Z,13.78
2022-10-01T03:05:56.208Z,13.82
2022-10-01T03:11:02.617Z,13.80
2022-10-01T03:16:09.368Z,13.78
2022-10-01T03:21:15.728Z,13.81
2022-10-01T03:26:21.977Z,13.79
2022-10-01T03:31:29.282Z,13.77
2022-10-01T03:36:35.535Z,13.79
2022-10-01T03:41:41.807Z,13.79
2022-10-01T03:46:47.891Z,13.78
2022-10-01T03:51:54.543Z,13.77
2022-10-01T03:57:00.744Z,13.78
2022-10-01T04:02:08.103Z,13.77
2022-10-01T04:07:14.419Z,13.78
2022-10-01T04:12:20.568Z,13.78
2022-10-01T04:17:27.259Z,13.76
2022-10-01T04:22:37.577Z,13.78
2022-10-01T04:27:44.900Z,13.76
2022-10-01T04:32:51.362Z,13.75
2022-10-01T04:38:03.988Z,13.76
2022-10-01T04:43:11.357Z,13.74
2022-10-01T04:48:17.674Z,13.73
2022-10-01T04:53:24.058Z,13.75
2022-10-01T04:58:31.721Z,13.76
2022-10-01T05:03:37.994Z,13.76
2022-10-01T05:08:44.258Z,13.73
2022-10-01T05:13:50.496Z,13.75
2022-10-01T05:18:56.745Z,13.75
2022-10-01T05:24:03.229Z,13.73
2022-10-01T05:29:09.467Z,13.77
2022-10-01T05:34:15.747Z,13.73
2022-10-01T05:39:21.707Z,13.74
2022-10-01T05:44:27.938Z,13.74
2022-10-01T05:49:34.392Z,13.74
2022-10-01T05:54:40.813Z,13.74
2022-10-01T05:59:47.261Z,13.74
2022-10-01T06:04:53.582Z,13.76
2022-10-01T06:10:00.027Z,13.75
2022-10-01T06:15:06.667Z,13.72
2022-10-01T06:20:14.405Z,13.73
2022-10-01T06:25:20.741Z,13.75
2022-10-01T06:30:27.857Z,13.73
2022-10-01T06:35:34.499Z,13.74
2022-10-01T06:40:41.089Z,13.74
2022-10-01T06:45:47.282Z,13.74
2022-10-01T06:50:53.648Z,13.73
2022-10-01T06:56:05.198Z,13.75
2022-10-01T07:01:11.484Z,13.75
2022-10-01T07:06:17.788Z,13.74
2022-10-01T07:11:24.412Z,13.73
2022-10-01T07:16:30.702Z,13.73
2022-10-01T07:21:37.321Z,13.74
2022-10-01T07:26:43.807Z,13.75
2022-10-01T07:31:50.503Z,13.72
2022-10-01T07:36:56.777Z,13.75
2022-10-01T07:42:02.967Z,13.74
2022-10-01T07:47:09.437Z,13.73
2022-10-01T07:52:15.651Z,13.74
2022-10-01T07:57:21.871Z,13.74
2022-10-01T08:02:28.155Z,13.75
2022-10-01T08:07:36.053Z,13.75
2022-10-01T08:12:43.539Z,13.76
2022-10-01T08:17:50.206Z,13.75
2022-10-01T08:22:56.818Z,13.75
2022-10-01T08:28:03.526Z,13.76
2022-10-01T08:33:11.524Z,13.76
2022-10-01T08:38:18.137Z,13.76
2022-10-01T08:43:30.671Z,13.78
2022-10-01T08:48:43.722Z,13.77
2022-10-01T08:53:54.088Z,13.78
2022-10-01T08:59:01.927Z,13.77
2022-10-01T09:04:08.392Z,13.77
2022-10-01T09:09:27.457Z,13.76
2022-10-01T09:14:37.858Z,13.76
2022-10-01T09:19:54.667Z,13.76
2022-10-01T09:25:04.511Z,13.77
2022-10-01T09:30:14.072Z,13.77
2022-10-01T09:35:35.464Z,13.77
2022-10-01T09:40:46.981Z,13.77
2022-10-01T09:45:53.347Z,13.78
2022-10-01T09:51:03.642Z,13.78
2022-10-01T09:56:13.018Z,13.79
2022-10-01T10:01:24.641Z,13.79
2022-10-01T10:06:32.451Z,13.80
2022-10-01T10:11:43.337Z,13.80
2022-10-01T10:16:50.196Z,13.78
2022-10-01T10:21:57.908Z,13.78
2022-10-01T10:27:05.619Z,13.77
2022-10-01T10:32:16.853Z,13.79
2022-10-01T10:37:27.989Z,13.80
2022-10-01T10:42:34.558Z,13.80
2022-10-01T10:47:47.105Z,13.81
2022-10-01T10:52:53.469Z,13.80
2022-10-01T10:58:09.090Z,13.81
2022-10-01T11:03:16.198Z,13.81
2022-10-01T11:08:25.451Z,13.82
2022-10-01T11:13:43.027Z,13.82
2022-10-01T11:19:03.358Z,13.85
2022-10-01T11:24:16.686Z,13.86
2022-10-01T11:29:28.178Z,13.87
2022-10-01T11:34:50.785Z,13.87
2022-10-01T11:39:58.127Z,13.87
2022-10-01T11:45:05.456Z,13.88
2022-10-01T11:50:17.589Z,13.88
2022-10-01T11:55:43.212Z,13.86
2022-10-01T12:00:54.024Z,13.86
2022-10-01T12:06:01.246Z,13.85
2022-10-01T12:11:14.587Z,13.86
2022-10-01T12:16:24.349Z,13.85
2022-10-01T12:21:33.979Z,13.86
2022-10-01T12:26:44.968Z,13.85
2022-10-01T12:31:55.088Z,13.85
2022-10-01T12:37:10.616Z,13.85
2022-10-01T12:42:25.121Z,13.84
2022-10-01T12:47:38.455Z,13.85
2022-10-01T12:52:50.523Z,13.85
2022-10-01T12:58:01.992Z,13.83
2022-10-01T13:03:25.077Z,13.84
2022-10-01T13:08:36.977Z,13.84
2022-10-01T13:13:43.884Z,13.85
2022-10-01T13:18:56.742Z,13.83
2022-10-01T13:24:09.831Z,13.83
2022-10-01T13:29:23.999Z,13.83
2022-10-01T13:34:41.911Z,13.83
2022-10-01T13:39:48.561Z,13.83
2022-10-01T13:44:56.749Z,13.82
2022-10-01T13:50:05.337Z,13.82
2022-10-01T13:55:25.861Z,13.82
2022-10-01T14:00:32.112Z,13.83
2022-10-01T14:05:39.915Z,13.83
2022-10-01T14:11:07.328Z,13.83
2022-10-01T14:16:14.087Z,13.82
2022-10-01T14:21:36.905Z,13.80
2022-10-01T14:26:49.122Z,13.83
2022-10-01T14:32:00.801Z,13.83
2022-10-01T14:37:07.718Z,13.83
2022-10-01T14:42:17.245Z,13.84
2022-10-01T14:47:24.778Z,13.84
2022-10-01T14:52:32.847Z,13.86
2022-10-01T14:57:40.020Z,13.86
2022-10-01T15:02:49.798Z,13.84
2022-10-01T15:07:56.280Z,13.82
2022-10-01T15:13:02.988Z,13.83
2022-10-01T15:18:09.940Z,13.83
2022-10-01T15:23:16.099Z,13.83
2022-10-01T15:28:29.783Z,13.82
2022-10-01T15:33:37.779Z,13.83
2022-10-01T15:38:45.817Z,13.83
2022-10-01T15:43:52.324Z,13.83
2022-10-01T15:49:17.198Z,13.81
2022-10-01T15:54:23.627Z,13.81
2022-10-01T15:59:29.918Z,13.81
2022-10-01T16:04:36.307Z,13.81
2022-10-01T16:09:52.458Z,13.78
2022-10-01T16:15:01.770Z,13.80
2022-10-01T16:20:22.291Z,13.80
2022-10-01T16:25:34.611Z,13.81
2022-10-01T16:30:40.836Z,13.79
2022-10-01T16:35:49.028Z,13.78
2022-10-01T16:40:55.488Z,13.78
2022-10-01T16:46:01.923Z,13.79
2022-10-01T16:51:08.277Z,13.77
2022-10-01T16:56:14.497Z,13.77
2022-10-01T17:01:20.842Z,13.77
2022-10-01T17:06:27.115Z,13.77
2022-10-01T17:11:33.838Z,13.75
2022-10-01T17:16:40.480Z,13.76
2022-10-01T17:21:47.398Z,13.76
2022-10-01T17:26:54.220Z,13.77
2022-10-01T17:32:00.657Z,13.77
2022-10-01T17:37:06.975Z,13.77
2022-10-01T17:42:15.317Z,13.76
2022-10-01T17:47:21.447Z,13.76
2022-10-01T17:52:27.720Z,13.76
2022-10-01T17:57:34.138Z,13.76
2022-10-01T18:02:42.541Z,13.76
2022-10-01T18:07:49.458Z,13.74
2022-10-01T18:12:57.762Z,13.75
2022-10-01T18:48:21.648Z,13.80
2022-10-01T18:53:36.009Z,13.77
2022-10-01T18:58:53.258Z,13.77
2022-10-01T19:04:09.265Z,13.76
2022-10-01T19:09:23.941Z,13.76
2022-10-01T19:14:34.181Z,13.75
2022-10-01T19:19:42.538Z,13.76
2022-10-01T19:24:55.367Z,13.76
2022-10-01T19:30:02.633Z,13.73
2022-10-01T19:35:12.337Z,13.74
2022-10-01T19:40:20.351Z,13.75
2022-10-01T19:45:25.839Z,13.73
2022-10-01T19:50:30.387Z,13.74
2022-10-01T19:55:38.732Z,13.74
2022-10-01T20:00:43.113Z,13.74
2022-10-01T20:05:49.406Z,13.75
2022-10-01T20:10:54.208Z,13.72
2022-10-01T20:16:01.360Z,13.73
2022-10-01T20:21:19.192Z,13.74
2022-10-01T20:26:28.755Z,13.75
2022-10-01T20:31:35.181Z,13.74
2022-10-01T20:36:42.637Z,13.74
2022-10-01T20:41:47.187Z,13.74
2022-10-01T20:46:52.728Z,13.74
2022-10-01T20:52:00.652Z,13.71
2022-10-01T20:57:08.943Z,13.73
2022-10-01T21:02:23.095Z,13.74
2022-10-01T21:07:30.306Z,13.75
2022-10-01T21:12:37.486Z,13.73
2022-10-01T21:17:46.477Z,13.72
2022-10-01T21:22:57.880Z,13.72
2022-10-01T21:28:09.025Z,13.75
2022-10-01T21:33:15.831Z,13.74
2022-10-01T21:38:28.553Z,13.73
2022-10-01T21:43:39.077Z,13.73
2022-10-01T21:48:46.998Z,13.70
2022-10-01T21:53:58.388Z,13.73
2022-10-01T21:59:07.694Z,13.73
2022-10-01T22:04:15.559Z,13.72
2022-10-01T22:09:23.171Z,13.74
2022-10-01T22:14:27.865Z,13.73
2022-10-01T22:19:32.553Z,13.72
2022-10-01T22:24:39.056Z,13.71
2022-10-01T22:29:45.008Z,13.72
2022-10-01T22:34:54.047Z,13.73
2022-10-01T22:39:59.625Z,13.72
2022-10-01T22:45:09.435Z,13.70
2022-10-01T22:50:23.137Z,13.71
2022-10-01T22:55:31.065Z,13.72
2022-10-01T23:00:37.068Z,13.71
2022-10-01T23:05:46.477Z,13.70
2022-10-01T23:10:54.067Z,13.71
2022-10-01T23:16:01.384Z,13.72
2022-10-01T23:21:10.157Z,13.70
2022-10-01T23:26:20.598Z,13.71
2022-10-01T23:31:26.618Z,13.72
2022-10-01T23:36:34.629Z,13.72
2022-10-01T23:41:41.618Z,13.69
2022-10-01T23:46:47.048Z,13.70
2022-10-01T23:51:53.943Z,13.69
2022-10-01T23:57:00.118Z,13.70
